createdAt,value
2022-09-18T00:01:39.025Z,1.80
2022-09-18T00:04:09.430Z,2.20
2022-09-18T00:06:43.206Z,1.93
2022-09-18T00:09:14.885Z,1.73
2022-09-18T00:11:47.102Z,1.80
2022-09-18T00:14:20.587Z,2.00
2022-09-18T00:16:49.763Z,1.50
2022-09-18T00:19:18.979Z,2.30
2022-09-18T00:21:50.652Z,2.00
2022-09-18T00:24:19.227Z,2.00
2022-09-18T00:26:48.383Z,2.20
2022-09-18T00:29:17.986Z,2.00
2022-09-18T00:31:46.201Z,1.70
2022-09-18T00:34:15.807Z,2.30
2022-09-18T00:36:44.149Z,2.30
2022-09-18T00:39:12.959Z,2.43
2022-09-18T00:41:42.975Z,2.50
2022-09-18T00:44:43.020Z,2.53
2022-09-18T00:47:11.187Z,2.87
2022-09-18T00:50:15.146Z,2.80
2022-09-18T00:53:03.650Z,2.67
2022-09-18T00:55:38.246Z,2.63
2022-09-18T00:58:06.691Z,2.77
2022-09-18T01:00:34.779Z,2.43
2022-09-18T01:03:02.767Z,2.70
2022-09-18T01:05:57.313Z,2.50
2022-09-18T01:08:46.094Z,2.63
2022-09-18T01:11:35.233Z,2.50
2022-09-18T01:14:20.493Z,2.30
2022-09-18T01:17:12.910Z,2.43
2022-09-18T01:20:10.478Z,2.30
2022-09-18T01:22:40.713Z,2.40
2022-09-18T01:25:20.996Z,2.00
2022-09-18T01:28:38.240Z,1.93
2022-09-18T01:31:21.733Z,2.50
2022-09-18T01:34:00.427Z,2.30
2022-09-18T01:36:34.781Z,2.83
2022-09-18T01:39:28.903Z,2.27
2022-09-18T01:41:58.544Z,2.90
2022-09-18T01:44:31.316Z,3.03
2022-09-18T01:47:06.634Z,3.73
2022-09-18T01:49:44.120Z,2.57
2022-09-18T01:52:36.790Z,3.00
2022-09-18T01:55:10.092Z,3.00
2022-09-18T01:58:10.335Z,3.10
2022-09-18T02:00:43.396Z,2.70
2022-09-18T02:03:26.735Z,2.70
2022-09-18T02:06:00.260Z,2.60
2022-09-18T02:08:34.217Z,2.80
2022-09-18T02:11:17.365Z,3.60
2022-09-18T02:13:55.187Z,3.60
2022-09-18T02:16:42.887Z,3.53
2022-09-18T02:19:18.739Z,4.13
2022-09-18T02:21:49.397Z,3.57
2022-09-18T02:24:21.851Z,3.33
2022-09-18T02:26:51.964Z,4.30
2022-09-18T02:29:23.830Z,5.27
2022-09-18T02:31:52.080Z,6.03
2022-09-18T02:34:21.483Z,2.90
2022-09-18T02:37:40.873Z,3.67
2022-09-18T02:40:21.217Z,3.20
2022-09-18T02:43:25.149Z,3.33
2022-09-18T02:46:29.721Z,3.70
2022-09-18T02:49:41.866Z,3.60
2022-09-18T02:52:26.016Z,3.87
2022-09-18T02:55:09.052Z,4.47
2022-09-18T02:57:43.120Z,8.63
2022-09-18T03:00:17.081Z,4.77
2022-09-18T03:02:47.802Z,2.80
2022-09-18T03:05:20.811Z,2.93
2022-09-18T03:07:55.037Z,2.60
2022-09-18T03:10:22.742Z,2.63
2022-09-18T03:12:50.309Z,3.43
2022-09-18T03:15:18.148Z,2.97
2022-09-18T03:17:45.653Z,3.37
2022-09-18T03:20:13.122Z,3.07
2022-09-18T03:22:40.550Z,2.97
2022-09-18T03:25:11.904Z,5.40
2022-09-18T03:27:39.450Z,3.77
2022-09-18T03:30:07.789Z,3.37
2022-09-18T03:32:35.425Z,3.20
2022-09-18T03:35:02.862Z,3.00
2022-09-18T03:37:30.329Z,2.87
2022-09-18T03:39:59.506Z,3.10
2022-09-18T03:42:27.078Z,3.13
2022-09-18T03:44:54.524Z,3.00
2022-09-18T03:47:30.101Z,2.70
2022-09-18T03:50:00.552Z,2.87
2022-09-18T03:52:31.127Z,2.70
2022-09-18T03:55:07.509Z,2.90
2022-09-18T03:58:04.301Z,2.20
2022-09-18T04:00:49.417Z,2.20
2022-09-18T04:03:25.531Z,2.27
2022-09-18T04:06:22.528Z,2.20
2022-09-18T04:09:11.754Z,2.00
2022-09-18T04:11:46.573Z,2.13
2022-09-18T04:14:14.833Z,2.33
2022-09-18T04:16:42.318Z,2.30
2022-09-18T04:19:09.901Z,1.90
2022-09-18T04:21:39.888Z,2.00
2022-09-18T04:24:07.458Z,2.07
2022-09-18T04:26:37.508Z,1.90
2022-09-18T04:29:05.993Z,2.00
2022-09-18T04:31:35.459Z,1.60
2022-09-18T04:34:08.319Z,2.13
2022-09-18T04:36:36.233Z,1.53
2022-09-18T04:39:04.959Z,1.60
2022-09-18T04:41:32.704Z,1.50
2022-09-18T04:44:00.433Z,1.40
2022-09-18T04:46:28.091Z,1.30
2022-09-18T04:48:55.573Z,1.20
2022-09-18T04:51:26.048Z,1.37
2022-09-18T04:53:53.614Z,1.30
2022-09-18T04:56:21.119Z,1.10
2022-09-18T04:58:51.504Z,1.40
2022-09-18T05:01:19.403Z,0.90
2022-09-18T05:03:47.243Z,1.20
2022-09-18T05:06:24.357Z,1.00
2022-09-18T05:08:52.685Z,0.73
2022-09-18T05:11:20.792Z,0.80
2022-09-18T05:13:56.551Z,0.90
2022-09-18T05:16:25.380Z,0.60
2022-09-18T05:19:15.750Z,0.50
2022-09-18T05:21:43.287Z,0.50
2022-09-18T05:24:13.350Z,0.50
2022-09-18T05:26:42.169Z,0.60
2022-09-18T05:29:09.690Z,0.43
2022-09-18T05:31:37.497Z,0.50
2022-09-18T05:34:05.162Z,0.70
2022-09-18T05:36:32.655Z,0.50
2022-09-18T05:39:00.730Z,0.50
2022-09-18T05:41:32.036Z,0.60
2022-09-18T05:44:02.822Z,0.50
2022-09-18T05:46:31.978Z,0.43
2022-09-18T05:49:01.823Z,0.50
2022-09-18T05:51:29.287Z,0.60
2022-09-18T05:53:57.532Z,0.83
2022-09-18T05:56:31.193Z,0.50
2022-09-18T05:58:59.735Z,0.57
2022-09-18T06:01:31.116Z,0.50
2022-09-18T06:04:20.725Z,0.70
2022-09-18T06:07:16.235Z,0.60
2022-09-18T06:09:44.140Z,0.70
2022-09-18T06:12:12.533Z,0.70
2022-09-18T06:14:39.992Z,0.80
2022-09-18T06:17:07.562Z,0.70
2022-09-18T06:19:35.673Z,0.70
2022-09-18T06:22:03.187Z,0.70
2022-09-18T06:24:30.661Z,0.70
2022-09-18T06:27:06.142Z,0.80
2022-09-18T06:29:33.692Z,0.80
2022-09-18T06:32:08.725Z,0.90
2022-09-18T06:34:38.937Z,0.70
2022-09-18T06:37:11.846Z,1.20
2022-09-18T06:39:42.037Z,1.23
2022-09-18T06:42:13.860Z,1.37
2022-09-18T06:44:48.485Z,1.13
2022-09-18T06:47:17.535Z,1.00
2022-09-18T06:49:47.159Z,1.10
2022-09-18T06:52:17.286Z,1.10
2022-09-18T06:54:44.818Z,1.13
2022-09-18T06:57:25.287Z,1.40
2022-09-18T06:59:52.902Z,1.13
2022-09-18T07:02:20.458Z,1.10
2022-09-18T07:04:54.939Z,1.10
2022-09-18T07:07:22.508Z,1.40
2022-09-18T07:09:51.538Z,1.60
2022-09-18T07:12:24.554Z,1.20
2022-09-18T07:14:54.519Z,1.00
2022-09-18T07:17:26.169Z,1.57
2022-09-18T07:19:56.203Z,1.03
2022-09-18T07:22:32.310Z,1.20
2022-09-18T07:24:59.801Z,1.33
2022-09-18T07:27:29.692Z,1.40
2022-09-18T07:29:57.897Z,1.57
2022-09-18T07:32:26.501Z,1.70
2022-09-18T07:34:57.427Z,1.57
2022-09-18T07:37:30.158Z,1.50
2022-09-18T07:40:18.030Z,1.60
2022-09-18T07:43:09.711Z,1.40
2022-09-18T07:45:45.289Z,1.47
2022-09-18T07:48:13.821Z,1.50
2022-09-18T07:50:46.696Z,1.70
2022-09-18T07:53:17.585Z,1.80
2022-09-18T07:55:48.138Z,1.50
2022-09-18T07:58:18.874Z,1.70
2022-09-18T08:00:55.204Z,1.57
2022-09-18T08:03:25.560Z,1.67
2022-09-18T08:05:58.867Z,1.83
2022-09-18T08:08:26.490Z,1.67
2022-09-18T08:11:12.734Z,1.80
2022-09-18T08:14:07.952Z,2.00
2022-09-18T08:16:53.765Z,1.57
2022-09-18T08:19:44.307Z,1.50
2022-09-18T08:22:24.029Z,2.13
2022-09-18T08:24:55.586Z,1.70
2022-09-18T08:27:23.151Z,1.57
2022-09-18T08:29:52.098Z,1.80
2022-09-18T08:32:19.579Z,1.33
2022-09-18T08:34:49.366Z,1.70
2022-09-18T08:37:16.964Z,1.57
2022-09-18T08:40:11.084Z,2.03
2022-09-18T08:43:39.878Z,1.37
2022-09-18T08:46:15.756Z,1.40
2022-09-18T08:49:20.971Z,1.20
2022-09-18T08:52:11.205Z,1.60
2022-09-18T08:55:20.325Z,1.50
2022-09-18T08:58:13.101Z,1.40
2022-09-18T09:00:51.360Z,1.20
2022-09-18T09:04:06.942Z,1.23
2022-09-18T09:06:43.605Z,1.03
2022-09-18T09:09:47.473Z,1.07
2022-09-18T09:12:41.178Z,1.20
2022-09-18T09:15:16.130Z,1.30
2022-09-18T09:18:19.242Z,1.20
2022-09-18T09:20:55.706Z,1.03
2022-09-18T09:24:09.771Z,0.90
2022-09-18T09:27:34.340Z,1.00
2022-09-18T09:30:26.167Z,1.10
2022-09-18T09:33:27.940Z,0.73
2022-09-18T09:36:17.589Z,0.90
2022-09-18T09:39:28.059Z,0.90
2022-09-18T09:42:11.897Z,1.37
2022-09-18T09:44:55.432Z,1.03
2022-09-18T09:47:46.252Z,0.90
2022-09-18T09:50:53.136Z,1.00
2022-09-18T09:53:46.878Z,0.80
2022-09-18T09:56:34.815Z,1.00
2022-09-18T09:59:43.301Z,0.83
2022-09-18T10:02:31.523Z,0.87
2022-09-18T10:05:39.589Z,1.17
2022-09-18T10:08:17.618Z,1.10
2022-09-18T10:10:57.741Z,1.10
2022-09-18T10:13:30.237Z,0.93
2022-09-18T10:16:12.318Z,1.00
2022-09-18T10:18:48.386Z,1.00
2022-09-18T10:21:42.216Z,0.90
2022-09-18T10:24:50.582Z,1.00
2022-09-18T10:27:20.081Z,0.90
2022-09-18T10:29:47.677Z,1.10
2022-09-18T10:41:41.412Z,0.90
2022-09-18T10:44:19.806Z,0.93
2022-09-18T10:47:09.356Z,1.10
2022-09-18T10:50:19.395Z,0.83
2022-09-18T10:52:54.019Z,1.30
2022-09-18T10:55:31.400Z,1.00
2022-09-18T10:58:13.819Z,1.17
2022-09-18T11:00:58.943Z,1.10
2022-09-18T11:03:58.114Z,1.47
2022-09-18T11:06:32.231Z,1.07
2022-09-18T11:09:11.282Z,1.10
2022-09-18T11:11:51.417Z,0.90
2022-09-18T11:14:39.691Z,1.17
2022-09-18T11:17:38.894Z,1.00
2022-09-18T11:20:08.427Z,1.23
2022-09-18T11:22:50.719Z,1.00
2022-09-18T11:34:53.131Z,1.10
2022-09-18T11:37:37.942Z,0.90
2022-09-18T11:40:15.880Z,1.13
2022-09-18T11:42:48.481Z,1.10
2022-09-18T11:46:03.088Z,1.10
2022-09-18T11:48:48.024Z,1.00
2022-09-18T11:51:29.801Z,1.20
2022-09-18T11:54:10.568Z,1.10
2022-09-18T11:56:48.586Z,1.20
2022-09-18T11:59:44.849Z,1.20
2022-09-18T12:02:39.766Z,1.10
2022-09-18T12:05:32.783Z,1.50
2022-09-18T12:08:19.278Z,1.00
2022-09-18T12:11:18.443Z,1.33
2022-09-18T12:14:21.703Z,7.07
2022-09-18T12:17:38.277Z,1.80
2022-09-18T12:20:22.435Z,1.40
2022-09-18T12:22:56.535Z,1.50
2022-09-18T12:25:54.728Z,1.90
2022-09-18T12:29:08.942Z,2.07
2022-09-18T12:32:06.897Z,2.00
2022-09-18T12:35:21.684Z,1.97
2022-09-18T12:38:35.355Z,2.60
2022-09-18T12:41:38.699Z,2.00
2022-09-18T12:44:34.104Z,2.13
2022-09-18T12:47:25.917Z,2.00
2022-09-18T12:50:40.123Z,2.40
2022-09-18T12:53:33.483Z,2.67
2022-09-18T12:56:27.020Z,2.63
2022-09-18T12:59:20.792Z,2.33
2022-09-18T13:02:11.365Z,2.77
2022-09-18T13:04:51.445Z,2.40
2022-09-18T13:07:50.702Z,2.43
2022-09-18T13:10:38.108Z,2.43
2022-09-18T13:13:47.897Z,2.57
2022-09-18T13:16:34.443Z,2.33
2022-09-18T13:19:15.274Z,2.40
2022-09-18T13:21:45.452Z,2.23
2022-09-18T13:24:26.756Z,2.80
2022-09-18T13:26:55.928Z,2.60
2022-09-18T13:29:56.758Z,2.50
2022-09-18T13:32:37.371Z,2.53
2022-09-18T13:35:19.601Z,2.60
2022-09-18T13:37:48.864Z,2.40
2022-09-18T13:40:36.061Z,2.40
2022-09-18T13:43:27.802Z,2.33
2022-09-18T13:45:58.009Z,2.40
2022-09-18T13:48:44.799Z,2.30
2022-09-18T13:51:31.113Z,2.20
2022-09-18T13:54:28.129Z,2.20
2022-09-18T13:57:09.547Z,1.90
2022-09-18T14:00:02.477Z,2.30
2022-09-18T14:02:51.874Z,2.23
2022-09-18T14:05:43.159Z,1.80
2022-09-18T14:08:19.870Z,2.00
2022-09-18T14:11:15.145Z,1.80
2022-09-18T14:13:54.389Z,1.73
2022-09-18T14:16:24.071Z,1.60
2022-09-18T14:19:07.213Z,1.73
2022-09-18T14:21:42.549Z,1.67
2022-09-18T14:24:43.009Z,1.63
2022-09-18T14:27:36.410Z,1.60
2022-09-18T14:30:39.322Z,1.57
2022-09-18T14:33:19.119Z,1.30
2022-09-18T14:36:00.302Z,1.50
2022-09-18T14:38:40.128Z,1.40
2022-09-18T14:41:26.403Z,1.50
2022-09-18T14:44:00.308Z,1.75
2022-09-18T14:46:33.681Z,1.38
2022-09-18T14:49:03.068Z,1.40
2022-09-18T14:51:49.312Z,1.35
2022-09-18T14:54:27.204Z,1.67
2022-09-18T14:57:26.748Z,1.83
2022-09-18T14:59:58.420Z,1.50
2022-09-18T15:02:34.291Z,1.75
2022-09-18T15:05:11.606Z,1.60
2022-09-18T15:07:40.150Z,1.20
2022-09-18T15:10:10.968Z,1.40
2022-09-18T15:12:43.329Z,1.43
2022-09-18T15:15:40.517Z,1.47
2022-09-18T15:18:31.354Z,1.67
2022-09-18T15:21:03.386Z,1.60
2022-09-18T15:23:40.588Z,1.73
2022-09-18T15:26:17.147Z,1.13
2022-09-18T15:28:49.875Z,1.37
2022-09-18T15:31:22.155Z,1.30
2022-09-18T15:34:15.592Z,1.87
2022-09-18T15:36:44.792Z,1.50
2022-09-18T15:39:38.130Z,1.53
2022-09-18T15:42:33.032Z,2.00
2022-09-18T15:45:07.282Z,1.50
2022-09-18T15:47:41.940Z,1.10
2022-09-18T15:50:15.385Z,1.50
2022-09-18T15:52:48.269Z,1.50
2022-09-18T15:55:23.384Z,1.70
2022-09-18T15:57:57.350Z,1.30
2022-09-18T16:00:35.355Z,1.50
2022-09-18T16:03:31.458Z,1.37
2022-09-18T16:06:05.307Z,1.67
2022-09-18T16:08:37.592Z,1.43
2022-09-18T16:11:07.279Z,4.30
2022-09-18T16:13:39.373Z,1.40
2022-09-18T16:16:16.882Z,1.67
2022-09-18T16:19:09.706Z,1.27
2022-09-18T16:21:45.110Z,1.97
2022-09-18T16:24:31.929Z,1.60
2022-09-18T16:27:07.260Z,1.63
2022-09-18T16:29:35.715Z,1.30
2022-09-18T16:32:03.407Z,1.53
2022-09-18T16:34:30.866Z,1.60
2022-09-18T16:36:58.429Z,1.60
2022-09-18T16:39:27.709Z,1.60
2022-09-18T16:41:55.415Z,1.50
2022-09-18T16:44:24.994Z,1.40
2022-09-18T16:46:59.689Z,1.60
2022-09-18T16:49:32.080Z,1.40
2022-09-18T16:51:59.680Z,1.50
2022-09-18T16:54:28.870Z,1.40
2022-09-18T16:57:12.271Z,1.20
2022-09-18T16:59:43.456Z,1.30
2022-09-18T17:02:14.933Z,1.50
2022-09-18T17:04:43.226Z,1.70
2022-09-18T17:07:10.749Z,1.57
2022-09-18T17:09:38.348Z,1.53
2022-09-18T17:12:06.264Z,1.50
2022-09-18T17:14:34.822Z,1.00
2022-09-18T17:17:04.238Z,1.30
2022-09-18T17:19:34.502Z,1.30
2022-09-18T17:22:01.933Z,1.43
2022-09-18T17:24:29.364Z,1.10
2022-09-18T17:27:01.324Z,1.17
2022-09-18T17:29:29.656Z,1.30
2022-09-18T17:31:57.449Z,1.33
2022-09-18T17:34:25.311Z,1.10
2022-09-18T17:36:52.826Z,1.00
2022-09-18T17:39:20.506Z,0.97
2022-09-18T17:41:48.283Z,1.30
2022-09-18T17:44:16.210Z,1.23
2022-09-18T17:46:45.398Z,1.27
2022-09-18T17:49:13.056Z,1.07
2022-09-18T17:51:40.546Z,1.10
2022-09-18T17:54:10.351Z,1.03
2022-09-18T17:56:38.047Z,1.03
2022-09-18T17:59:11.396Z,1.23
2022-09-18T18:01:47.229Z,1.47
2022-09-18T18:04:15.632Z,1.03
2022-09-18T18:06:46.593Z,1.17
2022-09-18T18:09:16.411Z,1.10
2022-09-18T18:11:46.235Z,1.30
2022-09-18T18:14:14.627Z,1.17
2022-09-18T18:16:42.285Z,1.00
2022-09-18T18:19:12.904Z,1.00
2022-09-18T18:21:45.070Z,1.10
2022-09-18T18:24:17.407Z,0.83
2022-09-18T18:26:47.247Z,1.10
2022-09-18T18:29:18.608Z,0.90
2022-09-18T18:31:48.054Z,0.80
2022-09-18T18:34:22.359Z,1.10
2022-09-18T18:36:53.890Z,1.13
2022-09-18T18:39:21.640Z,0.77
2022-09-18T18:41:49.835Z,0.90
2022-09-18T18:44:17.465Z,1.20
2022-09-18T18:46:47.176Z,0.80
2022-09-18T18:49:17.179Z,1.00
2022-09-18T18:51:48.059Z,0.90
2022-09-18T18:54:19.601Z,1.10
2022-09-18T18:56:48.176Z,1.00
2022-09-18T18:59:18.893Z,1.10
2022-09-18T19:01:47.737Z,1.00
2022-09-18T19:04:19.390Z,0.90
2022-09-18T19:06:51.199Z,0.70
2022-09-18T19:09:22.858Z,1.07
2022-09-18T19:11:53.013Z,1.10
2022-09-18T19:14:29.207Z,1.00
2022-09-18T19:16:58.662Z,0.90
2022-09-18T19:19:29.302Z,0.80
2022-09-18T19:22:00.724Z,0.70
2022-09-18T19:24:30.484Z,1.00
2022-09-18T19:26:59.125Z,0.80
2022-09-18T19:29:29.385Z,1.00
2022-09-18T19:31:57.913Z,0.83
2022-09-18T19:34:25.741Z,0.70
2022-09-18T19:36:53.657Z,0.90
2022-09-18T19:39:24.043Z,0.73
2022-09-18T19:42:00.374Z,0.83
2022-09-18T19:44:41.880Z,0.80
2022-09-18T19:47:26.167Z,0.70
2022-09-18T19:49:55.424Z,1.00
2022-09-18T19:52:28.682Z,1.10
2022-09-18T19:54:58.173Z,1.00
2022-09-18T19:57:28.641Z,0.70
2022-09-18T19:59:57.338Z,0.90
2022-09-18T20:02:26.869Z,1.00
2022-09-18T20:04:55.534Z,0.87
2022-09-18T20:07:23.036Z,0.90
2022-09-18T20:09:51.340Z,0.90
2022-09-18T20:12:19.198Z,0.77
2022-09-18T20:14:46.722Z,0.93
2022-09-18T20:17:14.269Z,0.80
2022-09-18T20:19:42.102Z,0.67
2022-09-18T20:22:09.587Z,0.80
2022-09-18T20:24:37.481Z,0.80
2022-09-18T20:27:05.252Z,0.70
2022-09-18T20:29:34.031Z,0.87
2022-09-18T20:32:02.837Z,1.10
2022-09-18T20:34:30.359Z,1.10
2022-09-18T20:36:57.910Z,0.90
2022-09-18T20:39:25.373Z,1.13
2022-09-18T20:41:52.865Z,0.77
2022-09-18T20:44:21.967Z,0.90
2022-09-18T20:46:50.500Z,0.80
2022-09-18T20:49:18.072Z,1.10
2022-09-18T20:51:46.124Z,0.90
2022-09-18T20:54:14.981Z,0.80
2022-09-18T20:56:44.727Z,0.90
2022-09-18T20:59:16.468Z,1.00
2022-09-18T21:01:46.116Z,0.83
2022-09-18T21:04:17.635Z,0.80
2022-09-18T21:06:49.159Z,1.10
2022-09-18T21:09:16.628Z,1.00
2022-09-18T21:11:45.125Z,0.90
2022-09-18T21:14:18.102Z,0.73
2022-09-18T21:16:48.975Z,0.90
2022-09-18T21:19:19.334Z,1.20
2022-09-18T21:21:50.076Z,0.90
2022-09-18T21:24:18.132Z,0.90
2022-09-18T21:26:49.915Z,1.00
2022-09-18T21:29:20.910Z,1.00
2022-09-18T21:31:51.998Z,0.77
2022-09-18T21:34:30.074Z,0.90
2022-09-18T21:37:01.587Z,0.87
2022-09-18T21:39:30.667Z,1.10
2022-09-18T21:42:00.793Z,0.87
2022-09-18T21:44:31.796Z,0.90
2022-09-18T21:47:10.716Z,1.10
2022-09-18T21:49:38.237Z,0.80
2022-09-18T21:52:08.096Z,0.90
2022-09-18T21:54:35.977Z,0.80
2022-09-18T21:57:04.535Z,0.80
2022-09-18T21:59:35.477Z,0.90
2022-09-18T22:02:03.192Z,1.00
2022-09-18T22:04:32.851Z,0.90
2022-09-18T22:07:04.046Z,0.90
2022-09-18T22:09:39.038Z,0.90
2022-09-18T22:12:07.835Z,0.60
2022-09-18T22:14:38.292Z,0.97
2022-09-18T22:17:10.240Z,0.87
2022-09-18T22:19:41.311Z,0.90
2022-09-18T22:22:10.835Z,1.00
2022-09-18T22:24:38.831Z,0.93
2022-09-18T22:27:10.256Z,0.97
2022-09-18T22:29:39.567Z,1.00
2022-09-18T22:32:10.160Z,1.40
2022-09-18T22:34:38.214Z,0.87
2022-09-18T22:37:06.188Z,1.10
2022-09-18T22:39:33.642Z,1.00
2022-09-18T22:42:01.894Z,1.30
2022-09-18T22:44:31.459Z,1.70
2022-09-18T22:46:58.978Z,1.40
2022-09-18T22:49:26.486Z,1.37
2022-09-18T22:51:54.615Z,0.90
2022-09-18T22:54:28.244Z,1.13
2022-09-18T22:56:56.900Z,1.20
2022-09-18T22:59:28.202Z,1.50
2022-09-18T23:02:03.839Z,1.60
2022-09-18T23:04:33.666Z,1.50
2022-09-18T23:07:03.777Z,1.43
2022-09-18T23:09:31.866Z,1.00
2022-09-18T23:12:00.008Z,1.30
2022-09-18T23:14:31.135Z,1.30
2022-09-18T23:17:00.240Z,1.00
2022-09-18T23:19:32.653Z,1.10
2022-09-18T23:22:00.706Z,1.10
2022-09-18T23:24:28.762Z,1.00
2022-09-18T23:26:58.271Z,1.03
2022-09-18T23:29:27.428Z,0.80
2022-09-18T23:31:59.295Z,0.90
2022-09-18T23:34:33.829Z,1.00
2022-09-18T23:37:02.636Z,1.10
2022-09-18T23:39:33.889Z,1.20
2022-09-18T23:42:03.747Z,1.20
2022-09-18T23:44:33.102Z,1.30
2022-09-18T23:47:03.718Z,1.23
2022-09-18T23:49:32.043Z,0.90
2022-09-18T23:51:59.937Z,1.07
2022-09-18T23:54:32.154Z,0.80
2022-09-18T23:56:59.596Z,0.90
2022-09-18T23:59:28.102Z,0.93
